Cwmbran, United Kingdom
Current Conditions -  °F | °C
As of 10:20 AM on Thursday 27 Nov 2014 (Local Time) from EGFF Reporting Station
Haze Haze  
Wind Chill: 40°   Ceiling: Unl
Heat Index: 45°   Visibility: 2.5mi
Dew Point: 45°   Wind: 9mph
Humidity: 100%   Direction: 110°ESE
Pressure: 29.59"   Gusts: NA
Location:  51.65°N, 3.03°W
Report Text: EGFF 271020Z 11008KT 4000 BR FEW002 SCT003 07/07 Q1002
Loading
Personal Weather Stations






























Interactive Weather Map New forecast layout! Learn more

10-Day Weather Forecast

Advertisements
Track Severe Weather on mobile